createdAt,value
2018-12-18T00:00:42.958Z,-6.60
2018-12-18T00:03:11.617Z,-6.70
2018-12-18T00:05:40.241Z,-6.60
2018-12-18T00:08:09.020Z,-6.60
2018-12-18T00:10:42.855Z,-6.60
2018-12-18T00:13:11.439Z,-6.50
2018-12-18T00:15:40.021Z,-6.50
2018-12-18T00:18:08.567Z,-6.60
2018-12-18T00:20:37.188Z,-6.60
2018-12-18T00:23:06.093Z,-6.60
2018-12-18T00:25:34.635Z,-6.50
2018-12-18T00:28:03.601Z,-6.50
2018-12-18T00:30:32.355Z,-6.30
2018-12-18T00:33:01.010Z,-6.20
2018-12-18T00:35:29.621Z,-6.10
2018-12-18T00:37:58.242Z,-6.00
2018-12-18T00:40:26.817Z,-5.90
2018-12-18T00:42:56.131Z,-5.80
2018-12-18T00:45:24.669Z,-5.70
2018-12-18T00:47:53.303Z,-5.60
2018-12-18T00:50:22.157Z,-5.50
2018-12-18T00:52:50.807Z,-5.50
2018-12-18T00:55:19.359Z,-5.40
2018-12-18T00:57:47.933Z,-5.30
2018-12-18T01:00:16.472Z,-5.30
2018-12-18T01:02:45.053Z,-5.10
2018-12-18T01:05:13.663Z,-5.10
2018-12-18T01:07:42.184Z,-5.10
2018-12-18T01:10:10.875Z,-5.00
2018-12-18T01:12:40.128Z,-5.00
2018-12-18T01:15:08.864Z,-4.80
2018-12-18T01:17:37.427Z,-4.80
2018-12-18T01:20:06.428Z,-4.80
2018-12-18T01:22:35.324Z,-4.70
2018-12-18T01:25:05.950Z,-4.80
2018-12-18T01:27:34.840Z,-4.60
2018-12-18T01:30:03.388Z,-4.60
2018-12-18T01:32:31.936Z,-4.70
2018-12-18T01:35:00.493Z,-4.70
2018-12-18T01:37:29.064Z,-4.60
2018-12-18T01:39:57.747Z,-4.60
2018-12-18T01:42:26.449Z,-4.50
2018-12-18T01:44:55.362Z,-4.50
2018-12-18T01:47:23.950Z,-4.60
2018-12-18T01:49:52.513Z,-4.50
2018-12-18T01:52:21.071Z,-4.50
2018-12-18T01:54:49.646Z,-4.50
2018-12-18T01:57:18.285Z,-4.40
2018-12-18T01:59:46.819Z,-4.40
2018-12-18T02:02:15.367Z,-4.30
2018-12-18T02:04:43.881Z,-4.30
2018-12-18T02:07:12.383Z,-4.20
2018-12-18T02:09:41.013Z,-4.30
2018-12-18T02:12:09.899Z,-4.20
2018-12-18T02:14:38.471Z,-4.10
2018-12-18T02:17:07.017Z,-4.10
2018-12-18T02:19:36.026Z,-4.10
2018-12-18T02:22:05.531Z,-4.00
2018-12-18T02:24:35.095Z,-3.90
2018-12-18T02:27:03.844Z,-4.00
2018-12-18T02:29:32.487Z,-4.10
2018-12-18T02:32:01.195Z,-4.00
2018-12-18T02:34:29.749Z,-4.10
2018-12-18T02:36:58.311Z,-4.00
2018-12-18T02:39:26.896Z,-4.00
2018-12-18T02:41:55.982Z,-3.80
2018-12-18T02:44:24.558Z,-3.90
2018-12-18T02:46:53.168Z,-3.90
2018-12-18T02:49:21.760Z,-4.00
2018-12-18T02:51:50.270Z,-3.90
2018-12-18T02:54:19.660Z,-3.90
2018-12-18T02:56:48.166Z,-3.90
2018-12-18T02:59:16.761Z,-3.90
2018-12-18T03:01:45.282Z,-3.90
2018-12-18T03:04:20.884Z,-3.80
2018-12-18T03:06:44.442Z,-3.80
2018-12-18T03:09:13.052Z,-3.70
2018-12-18T03:11:42.103Z,-3.80
2018-12-18T03:14:10.656Z,-3.80
2018-12-18T03:16:39.266Z,-3.70
2018-12-18T03:19:07.802Z,-3.60
2018-12-18T03:21:37.038Z,-3.60
2018-12-18T03:24:05.680Z,-3.70
2018-12-18T03:26:34.617Z,-3.70
2018-12-18T03:29:03.294Z,-3.70
2018-12-18T03:31:32.279Z,-3.70
2018-12-18T03:34:00.781Z,-3.80
2018-12-18T03:36:29.349Z,-3.70
2018-12-18T03:38:58.001Z,-3.60
2018-12-18T03:41:26.871Z,-3.60
2018-12-18T03:43:55.500Z,-3.60
2018-12-18T03:46:24.202Z,-3.50
2018-12-18T03:48:52.787Z,-3.60
2018-12-18T03:51:21.446Z,-3.60
2018-12-18T03:53:50.110Z,-3.60
2018-12-18T03:56:19.210Z,-3.50
2018-12-18T03:58:47.742Z,-3.50
2018-12-18T04:01:16.248Z,-3.40
2018-12-18T04:03:44.839Z,-3.40
2018-12-18T04:06:13.582Z,-3.40
2018-12-18T04:08:42.275Z,-3.40
2018-12-18T04:11:11.016Z,-3.40
2018-12-18T04:13:39.751Z,-3.30
2018-12-18T04:16:08.321Z,-3.30
2018-12-18T04:18:37.346Z,-3.30
2018-12-18T04:21:06.227Z,-3.40
2018-12-18T04:23:35.459Z,-3.40
2018-12-18T04:26:04.734Z,-3.40
2018-12-18T04:28:33.873Z,-3.30
2018-12-18T04:31:02.427Z,-3.30
2018-12-18T04:33:31.563Z,-3.30
2018-12-18T04:36:00.123Z,-3.20
2018-12-18T04:38:28.903Z,-3.30
2018-12-18T04:40:57.531Z,-3.30
2018-12-18T04:43:26.092Z,-3.30
2018-12-18T04:45:54.650Z,-3.40
2018-12-18T04:48:23.255Z,-3.40
2018-12-18T04:50:52.060Z,-3.40
2018-12-18T04:53:21.495Z,-3.30
2018-12-18T04:55:50.071Z,-3.30
2018-12-18T04:58:18.726Z,-3.20
2018-12-18T05:00:47.435Z,-3.20
2018-12-18T05:03:16.104Z,-3.20
2018-12-18T05:05:44.644Z,-3.30
2018-12-18T05:08:13.248Z,-3.20
2018-12-18T05:10:41.788Z,-3.30
2018-12-18T05:13:10.567Z,-3.20
2018-12-18T05:15:39.240Z,-3.20
2018-12-18T05:18:07.900Z,-3.20
2018-12-18T05:23:23.944Z,-3.20
2018-12-18T05:25:52.490Z,-3.20
2018-12-18T05:28:21.090Z,-3.20
2018-12-18T05:30:49.577Z,-3.20
2018-12-18T05:33:18.949Z,-3.20
2018-12-18T05:35:47.494Z,-3.20
2018-12-18T05:38:16.092Z,-3.20
2018-12-18T05:40:44.633Z,-3.20
2018-12-18T05:43:13.201Z,-3.10
2018-12-18T05:45:41.783Z,-3.10
2018-12-18T05:48:10.510Z,-3.10
2018-12-18T05:50:39.231Z,-3.10
2018-12-18T05:53:08.643Z,-3.10
2018-12-18T05:55:37.759Z,-3.10
2018-12-18T05:58:06.580Z,-3.10
2018-12-18T06:00:35.202Z,-3.10
2018-12-18T06:03:04.115Z,-3.10
2018-12-18T06:05:32.812Z,-3.10
2018-12-18T06:08:01.412Z,-3.10
2018-12-18T06:10:31.630Z,-3.20
2018-12-18T06:13:00.201Z,-3.10
2018-12-18T06:15:28.795Z,-3.20
2018-12-18T06:17:57.330Z,-3.10
2018-12-18T06:20:26.014Z,-3.10
2018-12-18T06:22:54.715Z,-3.20
2018-12-18T06:25:23.528Z,-3.20
2018-12-18T06:27:52.169Z,-3.20
2018-12-18T06:30:20.750Z,-3.20
2018-12-18T06:32:49.404Z,-3.10
2018-12-18T06:35:17.966Z,-3.10
2018-12-18T06:37:47.484Z,-3.10
2018-12-18T06:40:17.030Z,-3.00
2018-12-18T06:42:46.303Z,-3.10
2018-12-18T06:45:15.042Z,-3.10
2018-12-18T06:47:43.678Z,-3.00
2018-12-18T06:50:12.254Z,-3.10
2018-12-18T06:52:42.062Z,-2.90
2018-12-18T06:55:10.806Z,-3.00
2018-12-18T06:57:39.452Z,-3.00
2018-12-18T07:00:11.534Z,-3.00
2018-12-18T07:02:40.718Z,-3.00
2018-12-18T07:05:09.504Z,-3.00
2018-12-18T07:07:38.115Z,-3.00
2018-12-18T07:10:07.408Z,-3.00
2018-12-18T07:12:36.812Z,-3.10
2018-12-18T07:15:06.032Z,-3.10
2018-12-18T07:17:34.595Z,-3.10
2018-12-18T07:20:03.464Z,-3.00
2018-12-18T07:22:32.057Z,-3.00
2018-12-18T07:25:00.776Z,-3.00
2018-12-18T07:27:29.921Z,-3.10
2018-12-18T07:29:58.461Z,-3.10
2018-12-18T07:32:27.041Z,-3.10
2018-12-18T07:34:55.905Z,-3.00
2018-12-18T07:37:24.741Z,-3.10
2018-12-18T07:39:53.237Z,-3.00
2018-12-18T07:42:21.924Z,-3.00
2018-12-18T07:44:50.867Z,-3.00
2018-12-18T07:47:19.429Z,-3.00
2018-12-18T07:49:48.209Z,-3.00
2018-12-18T07:52:17.527Z,-3.00
2018-12-18T07:54:46.101Z,-2.80
2018-12-18T07:57:15.425Z,-2.70
2018-12-18T07:59:43.937Z,-2.70
2018-12-18T08:02:12.524Z,-2.80
2018-12-18T08:04:41.131Z,-2.90
2018-12-18T08:07:09.757Z,-2.90
2018-12-18T08:09:38.299Z,-2.90
2018-12-18T08:12:06.899Z,-2.80
2018-12-18T08:14:36.283Z,-2.80
2018-12-18T08:17:05.380Z,-2.80
2018-12-18T08:19:34.784Z,-2.70
2018-12-18T08:22:03.344Z,-2.60
2018-12-18T08:24:32.094Z,-2.50
2018-12-18T08:27:00.653Z,-2.60
2018-12-18T08:29:29.155Z,-2.70
2018-12-18T08:31:57.830Z,-2.70
2018-12-18T08:34:26.324Z,-2.60
2018-12-18T08:36:54.942Z,-2.50
2018-12-18T08:39:23.757Z,-2.40
2018-12-18T08:41:52.302Z,-2.40
2018-12-18T08:44:20.961Z,-2.40
2018-12-18T08:46:49.670Z,-2.50
2018-12-18T08:49:18.286Z,-2.40
2018-12-18T08:51:46.884Z,-2.30
2018-12-18T08:54:16.020Z,-2.20
2018-12-18T08:56:44.632Z,-2.30
2018-12-18T08:59:13.152Z,-2.30
2018-12-18T09:01:42.103Z,-2.30
2018-12-18T09:04:10.665Z,-2.20
2018-12-18T09:06:39.255Z,-2.10
2018-12-18T09:09:08.243Z,-2.10
2018-12-18T09:11:36.924Z,-2.00
2018-12-18T09:14:06.152Z,-2.00
2018-12-18T09:16:40.241Z,-2.00
2018-12-18T09:19:09.151Z,-1.80
2018-12-18T09:21:37.698Z,-1.80
2018-12-18T09:24:06.389Z,-1.80
2018-12-18T09:26:35.126Z,-1.90
2018-12-18T09:29:03.779Z,-1.90
2018-12-18T09:31:32.704Z,-1.90
2018-12-18T09:34:01.499Z,-1.80
2018-12-18T09:36:30.151Z,-1.90
2018-12-18T09:39:04.148Z,-1.80
2018-12-18T09:41:37.975Z,-1.80
2018-12-18T09:44:11.048Z,-1.70
2018-12-18T09:46:39.670Z,-1.80
2018-12-18T09:49:08.508Z,-1.70
2018-12-18T09:51:37.190Z,-1.40
2018-12-18T09:54:05.855Z,-1.50
2018-12-18T09:56:38.660Z,-1.40
2018-12-18T09:59:07.197Z,-1.20
2018-12-18T10:01:35.731Z,-1.00
2018-12-18T10:04:04.359Z,-0.30
2018-12-18T10:06:33.109Z,0.30
2018-12-18T10:09:01.676Z,0.80
2018-12-18T10:11:30.232Z,0.60
2018-12-18T10:13:58.834Z,0.40
2018-12-18T10:16:27.503Z,0.50
2018-12-18T10:18:56.104Z,0.10
2018-12-18T10:21:24.802Z,-0.60
2018-12-18T10:23:53.377Z,-0.90
2018-12-18T10:26:21.951Z,-0.70
2018-12-18T10:28:50.521Z,-0.90
2018-12-18T10:31:19.157Z,-1.00
2018-12-18T10:33:47.730Z,-1.10
2018-12-18T10:36:16.338Z,-1.20
2018-12-18T10:38:45.036Z,-1.30
2018-12-18T10:41:13.685Z,-1.40
2018-12-18T10:43:42.274Z,-1.40
2018-12-18T10:46:10.868Z,-1.40
2018-12-18T10:48:39.425Z,-1.40
2018-12-18T10:51:08.094Z,-1.30
2018-12-18T10:53:37.106Z,-1.30
2018-12-18T10:56:05.713Z,-1.30
2018-12-18T10:58:34.270Z,-1.30
2018-12-18T11:01:08.203Z,-1.20
2018-12-18T11:03:36.789Z,-1.20
2018-12-18T11:06:09.839Z,-1.20
2018-12-18T11:08:36.188Z,-1.30
2018-12-18T11:11:05.880Z,-1.10
2018-12-18T11:13:34.883Z,-1.10
2018-12-18T11:16:04.464Z,-1.00
2018-12-18T11:18:33.150Z,-1.00
2018-12-18T11:21:01.671Z,-1.00
2018-12-18T11:23:30.335Z,-1.10
2018-12-18T11:25:59.129Z,-1.10
2018-12-18T11:28:27.729Z,-1.00
2018-12-18T11:30:56.237Z,-1.00
2018-12-18T11:33:24.941Z,-0.80
2018-12-18T11:35:53.556Z,-0.30
2018-12-18T11:38:22.103Z,0.30
2018-12-18T11:40:50.648Z,0.90
2018-12-18T11:43:19.324Z,0.20
2018-12-18T11:45:48.403Z,-0.10
2018-12-18T11:48:17.099Z,-0.40
2018-12-18T11:50:45.651Z,-0.50
2018-12-18T11:53:14.379Z,-0.60
2018-12-18T11:55:43.020Z,-0.70
2018-12-18T11:58:11.526Z,-0.60
2018-12-18T12:00:40.075Z,-0.70
2018-12-18T12:03:08.677Z,-0.80
2018-12-18T12:05:38.189Z,-0.80
2018-12-18T12:08:06.874Z,-0.90
2018-12-18T12:10:35.604Z,-0.90
2018-12-18T12:13:04.403Z,-0.90
2018-12-18T12:15:33.609Z,-0.90
2018-12-18T12:18:02.215Z,-1.00
2018-12-18T12:20:30.751Z,-1.10
2018-12-18T12:22:59.295Z,-1.00
2018-12-18T12:25:27.817Z,-1.00
2018-12-18T12:28:01.801Z,-0.90
2018-12-18T12:30:30.343Z,-1.00
2018-12-18T12:32:58.995Z,-1.00
2018-12-18T12:35:27.631Z,-1.10
2018-12-18T12:37:56.349Z,-1.00
2018-12-18T12:40:24.955Z,-1.10
2018-12-18T12:42:53.513Z,-1.00
2018-12-18T12:45:22.305Z,-1.00
2018-12-18T12:47:53.179Z,-1.20
2018-12-18T12:50:21.709Z,-1.20
2018-12-18T12:52:50.269Z,-1.20
2018-12-18T12:55:19.049Z,-1.20
2018-12-18T12:57:47.704Z,-1.20
2018-12-18T13:00:16.307Z,-1.20
2018-12-18T13:02:44.903Z,-1.20
2018-12-18T13:05:13.604Z,-1.20
2018-12-18T13:07:42.250Z,-1.40
2018-12-18T13:10:10.909Z,-1.40
2018-12-18T13:12:39.569Z,-1.50
2018-12-18T13:15:08.391Z,-1.60
2018-12-18T13:17:36.937Z,-1.60
2018-12-18T13:20:06.225Z,-1.50
2018-12-18T13:22:34.847Z,-1.50
2018-12-18T13:25:03.536Z,-1.60
2018-12-18T13:27:32.102Z,-1.70
2018-12-18T13:30:00.916Z,-1.90
2018-12-18T13:32:29.468Z,-1.90
2018-12-18T13:34:58.132Z,-1.90
2018-12-18T13:37:26.769Z,-2.00
2018-12-18T13:39:55.289Z,-2.00
2018-12-18T13:42:23.858Z,-2.10
2018-12-18T13:44:52.428Z,-2.10
2018-12-18T13:47:27.013Z,-2.20
2018-12-18T13:49:51.718Z,-2.20
2018-12-18T13:52:20.259Z,-2.20
2018-12-18T13:54:48.847Z,-2.20
2018-12-18T13:57:17.466Z,-2.20
2018-12-18T13:59:46.169Z,-2.20
2018-12-18T14:02:14.694Z,-2.20
2018-12-18T14:04:43.336Z,-2.20
2018-12-18T14:07:11.968Z,-2.10
2018-12-18T14:09:40.676Z,-2.10
2018-12-18T14:12:09.285Z,-2.10
2018-12-18T14:14:37.876Z,-2.00
2018-12-18T14:17:06.556Z,-2.10
2018-12-18T14:19:35.421Z,-2.10
2018-12-18T14:22:05.409Z,-2.10
2018-12-18T14:24:33.972Z,-2.10
2018-12-18T14:27:02.718Z,-2.00
2018-12-18T14:29:31.354Z,-2.00
2018-12-18T14:32:00.019Z,-2.00
2018-12-18T14:34:28.547Z,-2.00
2018-12-18T14:36:57.205Z,-2.00
2018-12-18T14:39:25.805Z,-2.10
2018-12-18T14:41:54.351Z,-2.10
2018-12-18T14:44:23.079Z,-2.10
2018-12-18T14:46:51.651Z,-2.10
2018-12-18T14:49:20.207Z,-2.10
2018-12-18T14:51:49.843Z,-2.00
2018-12-18T14:54:18.655Z,-1.90
2018-12-18T14:56:47.512Z,-1.90
2018-12-18T14:59:16.187Z,-2.00
2018-12-18T15:01:44.922Z,-2.10
2018-12-18T15:04:13.574Z,-2.10
2018-12-18T15:06:42.380Z,-2.10
2018-12-18T15:09:10.970Z,-2.10
2018-12-18T15:11:39.596Z,-2.10
2018-12-18T15:14:08.164Z,-2.10
2018-12-18T15:16:36.782Z,-2.10
2018-12-18T15:19:05.350Z,-2.10
2018-12-18T15:21:34.538Z,-2.20
2018-12-18T15:24:04.127Z,-2.00
2018-12-18T15:26:33.166Z,-2.00
2018-12-18T15:29:01.885Z,-2.00
2018-12-18T15:31:30.432Z,-2.00
2018-12-18T15:33:59.020Z,-2.10
2018-12-18T15:36:27.670Z,-2.10
2018-12-18T15:38:56.227Z,-2.10
2018-12-18T15:41:24.771Z,-2.10
2018-12-18T15:43:53.348Z,-2.10
2018-12-18T15:46:21.937Z,-2.00
2018-12-18T15:48:50.545Z,-1.90
2018-12-18T15:51:19.179Z,-1.80
2018-12-18T15:53:47.917Z,-2.00
2018-12-18T15:56:16.501Z,-2.00
2018-12-18T15:58:45.046Z,-2.00
2018-12-18T16:01:13.651Z,-2.10
2018-12-18T16:03:42.233Z,-2.10
2018-12-18T16:06:10.835Z,-2.00
2018-12-18T16:08:39.450Z,-2.10
2018-12-18T16:11:07.971Z,-2.20
2018-12-18T16:13:36.539Z,-2.10
2018-12-18T16:16:05.247Z,-2.20
2018-12-18T16:18:33.918Z,-2.20
2018-12-18T16:21:02.538Z,-2.20
2018-12-18T16:23:31.148Z,-2.20
2018-12-18T16:25:59.669Z,-2.20
2018-12-18T16:28:28.254Z,-2.10
2018-12-18T16:30:56.828Z,-2.00
2018-12-18T16:33:26.500Z,-2.00
2018-12-18T16:35:55.158Z,-2.00
2018-12-18T16:38:23.712Z,-2.10
2018-12-18T16:40:52.396Z,-2.00
2018-12-18T16:43:20.973Z,-2.10
2018-12-18T16:45:49.502Z,-2.20
2018-12-18T16:48:18.068Z,-2.20
2018-12-18T16:50:46.711Z,-2.10
2018-12-18T16:53:15.270Z,-2.10
2018-12-18T16:55:43.928Z,-2.10
2018-12-18T16:58:12.473Z,-2.00
2018-12-18T17:00:41.052Z,-2.10
2018-12-18T17:03:09.609Z,-2.00
2018-12-18T17:05:38.175Z,-2.00
2018-12-18T17:08:07.188Z,-2.00
2018-12-18T17:10:35.737Z,-2.00
2018-12-18T17:13:04.899Z,-2.10
2018-12-18T17:15:33.580Z,-2.10
2018-12-18T17:18:02.169Z,-2.10
2018-12-18T17:20:30.995Z,-2.00
2018-12-18T17:22:59.535Z,-2.00
2018-12-18T17:25:28.133Z,-2.10
2018-12-18T17:27:56.743Z,-2.10
2018-12-18T17:30:25.397Z,-2.00
2018-12-18T17:32:54.786Z,-1.90
2018-12-18T17:35:23.465Z,-2.00
2018-12-18T17:37:52.095Z,-2.00
2018-12-18T17:40:20.633Z,-2.00
2018-12-18T17:42:49.783Z,-2.00
2018-12-18T17:45:18.348Z,-1.90
2018-12-18T17:47:46.975Z,-1.90
2018-12-18T17:50:15.507Z,-2.00
2018-12-18T17:52:44.125Z,-1.90
2018-12-18T17:55:12.720Z,-1.90
2018-12-18T17:57:41.266Z,-1.80
2018-12-18T18:00:09.958Z,-1.80
2018-12-18T18:02:38.739Z,-1.90
2018-12-18T18:05:07.378Z,-1.90
2018-12-18T18:07:42.749Z,-1.90
2018-12-18T18:10:08.021Z,-2.00
2018-12-18T18:12:36.671Z,-1.90
2018-12-18T18:15:05.877Z,-1.80
2018-12-18T18:17:35.224Z,-1.80
2018-12-18T18:20:05.698Z,-1.70
2018-12-18T18:22:35.025Z,-1.80
2018-12-18T18:25:03.842Z,-1.80
2018-12-18T18:27:32.537Z,-1.90
2018-12-18T18:30:01.127Z,-1.80
2018-12-18T18:32:29.796Z,-1.80
2018-12-18T18:34:58.396Z,-1.70
2018-12-18T18:37:27.018Z,-1.70
2018-12-18T18:39:57.442Z,-1.60
2018-12-18T18:42:26.033Z,-1.60
2018-12-18T18:44:54.802Z,-1.60
2018-12-18T18:47:23.380Z,-1.70
2018-12-18T18:49:51.936Z,-1.60
2018-12-18T18:52:20.626Z,-1.60
2018-12-18T18:54:49.258Z,-1.60
2018-12-18T18:57:19.065Z,-1.60
2018-12-18T18:59:47.960Z,-1.40
2018-12-18T19:02:16.569Z,-1.40
2018-12-18T19:04:45.190Z,-1.50
2018-12-18T19:07:13.753Z,-1.60
2018-12-18T19:09:42.332Z,-1.60
2018-12-18T19:12:10.953Z,-1.50
2018-12-18T19:14:40.497Z,-1.50
2018-12-18T19:17:09.052Z,-1.50
2018-12-18T19:19:37.666Z,-1.50
2018-12-18T19:22:06.294Z,-1.50
2018-12-18T19:24:35.070Z,-1.60
2018-12-18T19:27:03.670Z,-1.40
2018-12-18T19:29:32.321Z,-1.40
2018-12-18T19:32:00.916Z,-1.40
2018-12-18T19:34:30.125Z,-1.40
2018-12-18T19:36:58.916Z,-1.40
2018-12-18T19:39:27.734Z,-1.40
2018-12-18T19:41:56.307Z,-1.40
2018-12-18T19:44:24.848Z,-1.40
2018-12-18T19:46:53.450Z,-1.40
2018-12-18T19:49:22.120Z,-1.30
2018-12-18T19:51:50.784Z,-1.30
2018-12-18T19:54:20.571Z,-1.30
2018-12-18T19:56:49.171Z,-1.30
2018-12-18T19:59:17.739Z,-1.30
2018-12-18T20:01:46.353Z,-1.30
2018-12-18T20:04:14.952Z,-1.30
2018-12-18T20:06:43.568Z,-1.30
2018-12-18T20:09:12.250Z,-1.30
2018-12-18T20:11:41.544Z,-1.40
2018-12-18T20:14:10.151Z,-1.60
2018-12-18T20:16:38.668Z,-1.60
2018-12-18T20:19:07.943Z,-1.60
2018-12-18T20:21:36.618Z,-1.70
2018-12-18T20:24:05.641Z,-1.60
2018-12-18T20:26:34.310Z,-1.70
2018-12-18T20:29:24.910Z,-1.80
2018-12-18T20:31:57.222Z,-1.80
2018-12-18T20:34:30.860Z,-2.00
2018-12-18T20:36:59.392Z,-2.10
2018-12-18T20:39:28.020Z,-2.20
2018-12-18T20:41:57.171Z,-2.30
2018-12-18T20:44:25.784Z,-2.30
2018-12-18T20:46:54.486Z,-2.40
2018-12-18T20:49:23.133Z,-2.50
2018-12-18T20:51:51.721Z,-2.70
2018-12-18T20:54:20.333Z,-2.80
2018-12-18T20:56:48.911Z,-3.00
2018-12-18T20:59:17.585Z,-3.10
2018-12-18T21:01:46.205Z,-3.20
2018-12-18T21:04:14.859Z,-3.30
2018-12-18T21:06:43.459Z,-3.30
2018-12-18T21:09:12.204Z,-3.50
2018-12-18T21:11:40.809Z,-3.60
2018-12-18T21:14:09.502Z,-3.60
2018-12-18T21:16:38.177Z,-3.50
2018-12-18T21:19:06.812Z,-3.50
2018-12-18T21:21:35.463Z,-3.50
2018-12-18T21:24:04.443Z,-3.60
2018-12-18T21:26:33.759Z,-3.60
2018-12-18T21:29:03.219Z,-3.50
2018-12-18T21:31:31.786Z,-3.50
2018-12-18T21:34:00.528Z,-3.70
2018-12-18T21:36:29.080Z,-3.90
2018-12-18T21:38:57.773Z,-4.00
2018-12-18T21:41:26.377Z,-4.20
2018-12-18T21:43:54.906Z,-4.30
2018-12-18T21:46:23.474Z,-4.30
2018-12-18T21:48:52.153Z,-4.30
2018-12-18T21:51:20.955Z,-4.40
2018-12-18T21:53:49.491Z,-4.50
2018-12-18T21:56:18.073Z,-4.60
2018-12-18T21:58:46.711Z,-4.60
2018-12-18T22:01:15.360Z,-4.70
2018-12-18T22:03:44.281Z,-4.80
2018-12-18T22:06:13.123Z,-4.80
2018-12-18T22:08:41.891Z,-4.90
2018-12-18T22:11:11.111Z,-4.80
2018-12-18T22:13:39.721Z,-5.00
2018-12-18T22:16:08.937Z,-5.00
2018-12-18T22:18:37.781Z,-5.00
2018-12-18T22:21:06.435Z,-4.90
2018-12-18T22:23:34.949Z,-5.00
2018-12-18T22:26:03.761Z,-4.80
2018-12-18T22:28:32.425Z,-4.90
2018-12-18T22:31:01.180Z,-5.00
2018-12-18T22:33:29.827Z,-4.80
2018-12-18T22:35:58.507Z,-4.90
2018-12-18T22:38:27.217Z,-4.90
2018-12-18T22:40:55.846Z,-4.80
2018-12-18T22:43:24.459Z,-4.70
2018-12-18T22:45:53.039Z,-4.60
2018-12-18T22:48:21.725Z,-4.60
2018-12-18T22:50:50.267Z,-4.50
2018-12-18T22:53:18.788Z,-4.50
2018-12-18T22:55:47.633Z,-4.40
2018-12-18T22:58:16.227Z,-4.20
2018-12-18T23:00:53.176Z,-4.20
2018-12-18T23:03:21.956Z,-4.10
2018-12-18T23:05:50.460Z,-4.10
2018-12-18T23:08:19.019Z,-4.00
2018-12-18T23:10:47.601Z,-3.90
2018-12-18T23:13:21.546Z,-3.80
2018-12-18T23:15:50.207Z,-3.70
2018-12-18T23:18:18.743Z,-3.60
2018-12-18T23:20:47.264Z,-3.60
2018-12-18T23:23:16.027Z,-3.50
2018-12-18T23:25:44.577Z,-3.40
2018-12-18T23:28:13.085Z,-3.40
2018-12-18T23:30:41.732Z,-3.40
2018-12-18T23:33:10.258Z,-3.30
2018-12-18T23:35:38.829Z,-3.30
2018-12-18T23:38:07.338Z,-3.30
2018-12-18T23:40:35.904Z,-3.30
2018-12-18T23:43:04.417Z,-3.20
2018-12-18T23:45:32.967Z,-3.20
2018-12-18T23:48:01.674Z,-3.00
2018-12-18T23:50:30.281Z,-3.00
2018-12-18T23:52:58.783Z,-3.00
2018-12-18T23:55:27.311Z,-3.00
2018-12-18T23:57:55.863Z,-3.00
